sensor_id;sensor_type;location;lat;lon;timestamp;pressure;altitude;pressure_sealevel;temperature;humidity
36234;BME280;43467;50.890;5.982;2023-04-25T00:00:19;99655.59;;;9.46;67.48
36234;BME280;43467;50.890;5.982;2023-04-25T00:02:45;99661.25;;;9.39;67.77
36234;BME280;43467;50.890;5.982;2023-04-25T00:05:11;99652.69;;;9.33;68.61
36234;BME280;43467;50.890;5.982;2023-04-25T00:07:37;99661.09;;;9.24;68.68
36234;BME280;43467;50.890;5.982;2023-04-25T00:10:03;99662.16;;;9.03;69.13
36234;BME280;43467;50.890;5.982;2023-04-25T00:12:29;99663.38;;;8.96;70.07
36234;BME280;43467;50.890;5.982;2023-04-25T00:14:55;99659.34;;;9.06;69.85
36234;BME280;43467;50.890;5.982;2023-04-25T00:17:24;99660.53;;;9.18;69.39
36234;BME280;43467;50.890;5.982;2023-04-25T00:19:50;99657.22;;;9.31;69.06
36234;BME280;43467;50.890;5.982;2023-04-25T00:22:16;99650.38;;;9.27;69.06
36234;BME280;43467;50.890;5.982;2023-04-25T00:24:42;99649.25;;;9.33;68.75
36234;BME280;43467;50.890;5.982;2023-04-25T00:27:08;99656.84;;;9.39;68.49
36234;BME280;43467;50.890;5.982;2023-04-25T00:29:33;99660.13;;;9.44;68.41
36234;BME280;43467;50.890;5.982;2023-04-25T00:31:59;99660.88;;;9.29;68.73
36234;BME280;43467;50.890;5.982;2023-04-25T00:34:24;99669.53;;;9.14;69.78
36234;BME280;43467;50.890;5.982;2023-04-25T00:36:50;99667.31;;;9.23;69.48
36234;BME280;43467;50.890;5.982;2023-04-25T00:39:15;99673.72;;;9.37;68.73
36234;BME280;43467;50.890;5.982;2023-04-25T00:41:40;99677.47;;;9.14;69.77
36234;BME280;43467;50.890;5.982;2023-04-25T00:44:08;99671.81;;;9.21;69.44
36234;BME280;43467;50.890;5.982;2023-04-25T00:46:35;99671.59;;;9.26;69.56
36234;BME280;43467;50.890;5.982;2023-04-25T00:49:00;99670.28;;;9.34;69.04
36234;BME280;43467;50.890;5.982;2023-04-25T00:51:26;99664.22;;;9.32;69.07
36234;BME280;43467;50.890;5.982;2023-04-25T00:53:52;99674.03;;;9.48;68.73
36234;BME280;43467;50.890;5.982;2023-04-25T00:56:18;99666.84;;;9.50;68.46
36234;BME280;43467;50.890;5.982;2023-04-25T00:58:43;99666.78;;;9.51;68.40
36234;BME280;43467;50.890;5.982;2023-04-25T01:01:10;99658.69;;;9.54;68.35
36234;BME280;43467;50.890;5.982;2023-04-25T01:03:38;99672.72;;;9.56;68.50
36234;BME280;43467;50.890;5.982;2023-04-25T01:06:10;99674.88;;;9.48;68.60
36234;BME280;43467;50.890;5.982;2023-04-25T01:08:38;99663.22;;;9.35;68.92
36234;BME280;43467;50.890;5.982;2023-04-25T01:11:05;99674.63;;;9.36;68.93
36234;BME280;43467;50.890;5.982;2023-04-25T01:13:31;99669.50;;;9.32;68.96
36234;BME280;43467;50.890;5.982;2023-04-25T01:15:58;99676.97;;;9.24;69.45
36234;BME280;43467;50.890;5.982;2023-04-25T01:18:23;99679.97;;;9.34;69.00
36234;BME280;43467;50.890;5.982;2023-04-25T01:20:51;99679.06;;;9.35;68.92
36234;BME280;43467;50.890;5.982;2023-04-25T01:23:18;99676.63;;;9.30;69.05
36234;BME280;43467;50.890;5.982;2023-04-25T01:25:45;99681.75;;;9.33;69.12
36234;BME280;43467;50.890;5.982;2023-04-25T01:28:11;99677.34;;;9.34;69.13
36234;BME280;43467;50.890;5.982;2023-04-25T01:30:37;99674.16;;;9.27;69.24
36234;BME280;43467;50.890;5.982;2023-04-25T01:33:04;99672.22;;;9.31;68.92
36234;BME280;43467;50.890;5.982;2023-04-25T01:35:31;99680.16;;;9.31;68.59
36234;BME280;43467;50.890;5.982;2023-04-25T01:37:57;99683.72;;;9.30;68.51
36234;BME280;43467;50.890;5.982;2023-04-25T01:40:23;99687.22;;;9.30;68.60
36234;BME280;43467;50.890;5.982;2023-04-25T01:42:50;99690.72;;;9.31;68.72
36234;BME280;43467;50.890;5.982;2023-04-25T01:45:16;99683.94;;;9.25;68.96
36234;BME280;43467;50.890;5.982;2023-04-25T01:47:42;99684.78;;;9.26;69.16
36234;BME280;43467;50.890;5.982;2023-04-25T01:50:09;99669.84;;;9.08;69.82
36234;BME280;43467;50.890;5.982;2023-04-25T01:52:36;99682.91;;;9.11;69.70
36234;BME280;43467;50.890;5.982;2023-04-25T01:55:02;99679.13;;;9.16;69.71
36234;BME280;43467;50.890;5.982;2023-04-25T01:57:27;99684.91;;;9.06;69.96
36234;BME280;43467;50.890;5.982;2023-04-25T02:00:00;99685.97;;;9.02;70.19
36234;BME280;43467;50.890;5.982;2023-04-25T02:02:26;99686.69;;;9.05;70.17
36234;BME280;43467;50.890;5.982;2023-04-25T02:04:51;99686.78;;;9.04;70.35
36234;BME280;43467;50.890;5.982;2023-04-25T02:07:17;99693.47;;;9.11;70.23
36234;BME280;43467;50.890;5.982;2023-04-25T02:09:43;99693.84;;;9.03;70.46
36234;BME280;43467;50.890;5.982;2023-04-25T02:12:09;99690.50;;;9.00;70.51
36234;BME280;43467;50.890;5.982;2023-04-25T02:14:35;99696.63;;;9.00;70.43
36234;BME280;43467;50.890;5.982;2023-04-25T02:17:00;99692.16;;;8.83;71.15
36234;BME280;43467;50.890;5.982;2023-04-25T02:19:26;99702.50;;;8.88;71.11
36234;BME280;43467;50.890;5.982;2023-04-25T02:21:51;99692.41;;;8.77;71.39
36234;BME280;43467;50.890;5.982;2023-04-25T02:24:17;99692.50;;;8.76;71.37
36234;BME280;43467;50.890;5.982;2023-04-25T02:26:42;99696.34;;;8.69;71.58
36234;BME280;43467;50.890;5.982;2023-04-25T02:29:09;99697.50;;;8.63;71.85
36234;BME280;43467;50.890;5.982;2023-04-25T02:31:35;99692.44;;;8.59;72.20
36234;BME280;43467;50.890;5.982;2023-04-25T02:34:00;99700.75;;;8.68;72.02
36234;BME280;43467;50.890;5.982;2023-04-25T02:36:25;99702.78;;;8.63;71.94
36234;BME280;43467;50.890;5.982;2023-04-25T02:38:51;99697.34;;;8.66;71.80
36234;BME280;43467;50.890;5.982;2023-04-25T02:41:17;99705.06;;;8.71;71.98
36234;BME280;43467;50.890;5.982;2023-04-25T02:43:42;99697.72;;;8.59;72.37
36234;BME280;43467;50.890;5.982;2023-04-25T02:46:08;99703.19;;;8.54;72.39
36234;BME280;43467;50.890;5.982;2023-04-25T02:48:34;99705.31;;;8.46;72.96
36234;BME280;43467;50.890;5.982;2023-04-25T02:50:59;99705.38;;;8.45;73.03
36234;BME280;43467;50.890;5.982;2023-04-25T02:53:24;99707.59;;;8.35;73.78
36234;BME280;43467;50.890;5.982;2023-04-25T02:55:50;99711.81;;;8.39;73.17
36234;BME280;43467;50.890;5.982;2023-04-25T02:58:17;99699.94;;;8.29;73.95
36234;BME280;43467;50.890;5.982;2023-04-25T03:00:43;99705.47;;;8.43;73.41
36234;BME280;43467;50.890;5.982;2023-04-25T03:03:08;99712.53;;;8.43;73.47
36234;BME280;43467;50.890;5.982;2023-04-25T03:05:33;99709.91;;;8.43;73.05
36234;BME280;43467;50.890;5.982;2023-04-25T03:07:59;99704.53;;;8.44;73.45
36234;BME280;43467;50.890;5.982;2023-04-25T03:10:24;99699.41;;;8.41;73.61
36234;BME280;43467;50.890;5.982;2023-04-25T03:12:50;99702.25;;;8.36;73.69
36234;BME280;43467;50.890;5.982;2023-04-25T03:15:15;99706.09;;;8.28;74.28
36234;BME280;43467;50.890;5.982;2023-04-25T03:17:41;99706.53;;;8.39;73.80
36234;BME280;43467;50.890;5.982;2023-04-25T03:20:07;99712.22;;;8.30;73.99
36234;BME280;43467;50.890;5.982;2023-04-25T03:22:33;99715.63;;;8.12;74.93
36234;BME280;43467;50.890;5.982;2023-04-25T03:24:59;99712.59;;;8.21;74.39
36234;BME280;43467;50.890;5.982;2023-04-25T03:27:24;99706.09;;;8.28;74.19
36234;BME280;43467;50.890;5.982;2023-04-25T03:29:49;99707.31;;;8.21;74.20
36234;BME280;43467;50.890;5.982;2023-04-25T03:32:15;99710.63;;;8.06;75.31
36234;BME280;43467;50.890;5.982;2023-04-25T03:34:40;99722.38;;;8.19;74.59
36234;BME280;43467;50.890;5.982;2023-04-25T03:37:06;99712.72;;;8.18;74.61
36234;BME280;43467;50.890;5.982;2023-04-25T03:39:31;99711.06;;;8.15;74.81
36234;BME280;43467;50.890;5.982;2023-04-25T03:41:57;99718.41;;;8.09;74.80
36234;BME280;43467;50.890;5.982;2023-04-25T03:44:22;99713.50;;;8.20;74.31
36234;BME280;43467;50.890;5.982;2023-04-25T03:46:49;99712.94;;;8.13;74.73
36234;BME280;43467;50.890;5.982;2023-04-25T03:49:14;99711.81;;;8.19;74.24
36234;BME280;43467;50.890;5.982;2023-04-25T03:51:40;99715.09;;;8.24;74.10
36234;BME280;43467;50.890;5.982;2023-04-25T03:54:06;99719.28;;;8.28;73.63
36234;BME280;43467;50.890;5.982;2023-04-25T03:56:32;99719.06;;;8.34;73.44
36234;BME280;43467;50.890;5.982;2023-04-25T03:58:57;99716.44;;;8.34;72.95
36234;BME280;43467;50.890;5.982;2023-04-25T04:01:23;99717.16;;;8.37;73.42
36234;BME280;43467;50.890;5.982;2023-04-25T04:03:49;99717.88;;;8.41;73.02
36234;BME280;43467;50.890;5.982;2023-04-25T04:06:14;99720.56;;;8.39;72.99
36234;BME280;43467;50.890;5.982;2023-04-25T04:08:40;99723.19;;;8.39;72.77
36234;BME280;43467;50.890;5.982;2023-04-25T04:11:05;99727.56;;;8.40;72.98
36234;BME280;43467;50.890;5.982;2023-04-25T04:13:31;99726.56;;;8.43;72.85
36234;BME280;43467;50.890;5.982;2023-04-25T04:15:57;99733.44;;;8.47;73.07
36234;BME280;43467;50.890;5.982;2023-04-25T04:18:23;99735.13;;;8.48;72.79
36234;BME280;43467;50.890;5.982;2023-04-25T04:20:48;99742.13;;;8.49;72.95
36234;BME280;43467;50.890;5.982;2023-04-25T04:23:14;99744.59;;;8.52;72.80
36234;BME280;43467;50.890;5.982;2023-04-25T04:25:39;99743.28;;;8.44;72.90
36234;BME280;43467;50.890;5.982;2023-04-25T04:28:05;99741.75;;;8.38;73.26
36234;BME280;43467;50.890;5.982;2023-04-25T04:30:31;99742.59;;;8.38;73.19
36234;BME280;43467;50.890;5.982;2023-04-25T04:32:58;99749.47;;;8.43;73.05
36234;BME280;43467;50.890;5.982;2023-04-25T04:35:26;99749.47;;;8.43;73.04
36234;BME280;43467;50.890;5.982;2023-04-25T04:37:51;99740.63;;;8.44;73.08
36234;BME280;43467;50.890;5.982;2023-04-25T04:40:17;99749.56;;;8.39;73.20
36234;BME280;43467;50.890;5.982;2023-04-25T04:42:43;99750.56;;;8.37;73.63
36234;BME280;43467;50.890;5.982;2023-04-25T04:45:10;99745.09;;;8.42;73.35
36234;BME280;43467;50.890;5.982;2023-04-25T04:47:36;99757.84;;;8.32;73.94
36234;BME280;43467;50.890;5.982;2023-04-25T04:50:02;99756.50;;;8.42;73.56
36234;BME280;43467;50.890;5.982;2023-04-25T04:52:28;99759.16;;;8.42;73.60
36234;BME280;43467;50.890;5.982;2023-04-25T04:54:53;99753.00;;;8.42;73.99
36234;BME280;43467;50.890;5.982;2023-04-25T04:57:18;99762.00;;;8.37;74.46
36234;BME280;43467;50.890;5.982;2023-04-25T04:59:44;99762.03;;;8.36;73.88
36234;BME280;43467;50.890;5.982;2023-04-25T05:02:10;99763.94;;;8.12;74.80
36234;BME280;43467;50.890;5.982;2023-04-25T05:04:35;99774.69;;;8.08;75.23
36234;BME280;43467;50.890;5.982;2023-04-25T05:07:00;99768.25;;;7.94;75.11
36234;BME280;43467;50.890;5.982;2023-04-25T05:09:26;99782.59;;;8.08;75.46
36234;BME280;43467;50.890;5.982;2023-04-25T05:11:52;99789.34;;;8.15;75.18
36234;BME280;43467;50.890;5.982;2023-04-25T05:14:17;99790.69;;;8.23;74.52
36234;BME280;43467;50.890;5.982;2023-04-25T05:16:43;99795.44;;;8.15;74.85
36234;BME280;43467;50.890;5.982;2023-04-25T05:19:09;99796.78;;;8.05;74.96
36234;BME280;43467;50.890;5.982;2023-04-25T05:21:34;99779.56;;;8.17;74.62
36234;BME280;43467;50.890;5.982;2023-04-25T05:24:00;99806.31;;;8.08;74.53
36234;BME280;43467;50.890;5.982;2023-04-25T05:26:27;99804.09;;;8.19;74.06
36234;BME280;43467;50.890;5.982;2023-04-25T05:28:56;99805.81;;;8.20;72.67
36234;BME280;43467;50.890;5.982;2023-04-25T05:31:22;99811.94;;;8.20;72.58
36234;BME280;43467;50.890;5.982;2023-04-25T05:33:47;99819.06;;;7.98;72.51
36234;BME280;43467;50.890;5.982;2023-04-25T05:36:13;99816.16;;;8.04;73.18
36234;BME280;43467;50.890;5.982;2023-04-25T05:38:38;99820.19;;;8.13;72.90
36234;BME280;43467;50.890;5.982;2023-04-25T05:41:04;99816.34;;;8.20;72.47
36234;BME280;43467;50.890;5.982;2023-04-25T05:43:29;99807.09;;;8.31;71.96
36234;BME280;43467;50.890;5.982;2023-04-25T05:45:55;99828.84;;;8.36;71.82
36234;BME280;43467;50.890;5.982;2023-04-25T05:48:20;99819.53;;;8.48;71.81
36234;BME280;43467;50.890;5.982;2023-04-25T05:50:45;99828.41;;;8.47;71.13
36234;BME280;43467;50.890;5.982;2023-04-25T05:53:11;99836.84;;;8.55;69.66
36234;BME280;43467;50.890;5.982;2023-04-25T05:55:36;99830.50;;;8.59;70.58
36234;BME280;43467;50.890;5.982;2023-04-25T05:58:02;99840.78;;;8.45;69.79
36234;BME280;43467;50.890;5.982;2023-04-25T06:00:27;99840.78;;;8.45;69.61
36234;BME280;43467;50.890;5.982;2023-04-25T06:02:54;99838.69;;;8.53;69.55
36234;BME280;43467;50.890;5.982;2023-04-25T06:05:20;99832.19;;;8.60;68.87
36234;BME280;43467;50.890;5.982;2023-04-25T06:07:45;99845.09;;;8.48;68.30
36234;BME280;43467;50.890;5.982;2023-04-25T06:10:10;99843.63;;;8.61;67.44
36234;BME280;43467;50.890;5.982;2023-04-25T06:12:36;99849.75;;;8.61;67.26
36234;BME280;43467;50.890;5.982;2023-04-25T06:15:01;99847.13;;;8.61;67.27
36234;BME280;43467;50.890;5.982;2023-04-25T06:17:27;99857.81;;;8.58;67.15
36234;BME280;43467;50.890;5.982;2023-04-25T06:19:52;99857.97;;;8.55;66.71
36234;BME280;43467;50.890;5.982;2023-04-25T06:22:18;99857.75;;;8.60;66.38
36234;BME280;43467;50.890;5.982;2023-04-25T06:24:43;99859.19;;;8.67;66.46
36234;BME280;43467;50.890;5.982;2023-04-25T06:27:09;99851.84;;;8.73;66.51
36234;BME280;43467;50.890;5.982;2023-04-25T06:29:34;99851.81;;;8.75;66.25
36234;BME280;43467;50.890;5.982;2023-04-25T06:32:00;99850.78;;;8.77;66.21
36234;BME280;43467;50.890;5.982;2023-04-25T06:34:25;99852.16;;;8.86;65.70
36234;BME280;43467;50.890;5.982;2023-04-25T06:36:50;99861.88;;;8.85;65.79
36234;BME280;43467;50.890;5.982;2023-04-25T06:39:16;99835.09;;;8.74;65.20
36234;BME280;43467;50.890;5.982;2023-04-25T06:41:41;99863.31;;;8.93;65.45
36234;BME280;43467;50.890;5.982;2023-04-25T06:44:07;99870.97;;;8.99;65.38
36234;BME280;43467;50.890;5.982;2023-04-25T06:46:32;99866.34;;;9.04;65.11
36234;BME280;43467;50.890;5.982;2023-04-25T06:48:58;99877.13;;;8.79;65.20
36234;BME280;43467;50.890;5.982;2023-04-25T06:51:23;99885.63;;;8.65;65.50
36234;BME280;43467;50.890;5.982;2023-04-25T06:53:49;99879.50;;;8.65;65.67
36234;BME280;43467;50.890;5.982;2023-04-25T06:56:15;99884.59;;;8.69;65.32
36234;BME280;43467;50.890;5.982;2023-04-25T06:58:41;99888.13;;;8.68;65.58
36234;BME280;43467;50.890;5.982;2023-04-25T07:01:06;99887.16;;;8.71;65.28
36234;BME280;43467;50.890;5.982;2023-04-25T07:03:32;99887.22;;;8.69;65.34
36234;BME280;43467;50.890;5.982;2023-04-25T07:05:57;99893.84;;;8.59;65.35
36234;BME280;43467;50.890;5.982;2023-04-25T07:08:23;99893.84;;;8.59;64.01
36234;BME280;43467;50.890;5.982;2023-04-25T07:10:48;99896.72;;;8.53;63.32
36234;BME280;43467;50.890;5.982;2023-04-25T07:13:13;99894.81;;;8.57;63.13
36234;BME280;43467;50.890;5.982;2023-04-25T07:15:39;99899.97;;;8.60;63.17
36234;BME280;43467;50.890;5.982;2023-04-25T07:18:04;99903.88;;;8.71;63.71
36234;BME280;43467;50.890;5.982;2023-04-25T07:20:30;99911.69;;;8.73;62.09
36234;BME280;43467;50.890;5.982;2023-04-25T07:22:56;99913.69;;;8.68;61.87
36234;BME280;43467;50.890;5.982;2023-04-25T07:25:22;99905.78;;;8.68;61.87
36234;BME280;43467;50.890;5.982;2023-04-25T07:27:47;99917.44;;;8.82;61.90
36234;BME280;43467;50.890;5.982;2023-04-25T07:30:13;99917.59;;;8.79;61.18
36234;BME280;43467;50.890;5.982;2023-04-25T07:32:38;99911.44;;;8.79;61.51
36234;BME280;43467;50.890;5.982;2023-04-25T07:35:05;99921.16;;;8.78;61.73
36234;BME280;43467;50.890;5.982;2023-04-25T07:37:32;99914.88;;;8.81;59.84
36234;BME280;43467;50.890;5.982;2023-04-25T07:39:57;99925.63;;;8.76;60.65
36234;BME280;43467;50.890;5.982;2023-04-25T07:42:23;99933.47;;;8.78;59.53
36234;BME280;43467;50.890;5.982;2023-04-25T07:44:48;99933.47;;;8.78;58.89
36234;BME280;43467;50.890;5.982;2023-04-25T07:47:13;99930.31;;;8.90;59.45
36234;BME280;43467;50.890;5.982;2023-04-25T07:49:39;99939.88;;;8.93;58.11
36234;BME280;43467;50.890;5.982;2023-04-25T07:52:05;99944.09;;;8.97;58.28
36234;BME280;43467;50.890;5.982;2023-04-25T07:54:31;99937.25;;;9.13;58.41
36234;BME280;43467;50.890;5.982;2023-04-25T07:56:57;99938.72;;;9.18;58.27
36234;BME280;43467;50.890;5.982;2023-04-25T07:59:23;99934.59;;;9.13;56.44
36234;BME280;43467;50.890;5.982;2023-04-25T08:01:49;99944.97;;;9.36;56.88
36234;BME280;43467;50.890;5.982;2023-04-25T08:04:14;99946.81;;;9.34;56.49
36234;BME280;43467;50.890;5.982;2023-04-25T08:06:39;99959.56;;;9.45;57.05
36234;BME280;43467;50.890;5.982;2023-04-25T08:09:06;99962.63;;;9.36;56.30
36234;BME280;43467;50.890;5.982;2023-04-25T08:11:31;99970.28;;;9.21;55.07
36234;BME280;43467;50.890;5.982;2023-04-25T08:13:57;99980.78;;;9.23;54.82
36234;BME280;43467;50.890;5.982;2023-04-25T08:16:22;99971.09;;;9.42;55.25
36234;BME280;43467;50.890;5.982;2023-04-25T08:18:48;99971.09;;;9.42;55.53
36234;BME280;43467;50.890;5.982;2023-04-25T08:21:14;99973.19;;;9.54;55.01
36234;BME280;43467;50.890;5.982;2023-04-25T08:23:40;99974.78;;;9.58;54.65
36234;BME280;43467;50.890;5.982;2023-04-25T08:26:05;99978.88;;;9.65;54.63
36234;BME280;43467;50.890;5.982;2023-04-25T08:28:31;99976.00;;;9.70;55.40
36234;BME280;43467;50.890;5.982;2023-04-25T08:30:57;99982.13;;;9.70;55.64
36234;BME280;43467;50.890;5.982;2023-04-25T08:33:22;99988.88;;;9.77;54.91
36234;BME280;43467;50.890;5.982;2023-04-25T08:35:48;99983.44;;;9.80;54.01
36234;BME280;43467;50.890;5.982;2023-04-25T08:38:13;99995.03;;;9.78;53.70
36234;BME280;43467;50.890;5.982;2023-04-25T08:40:40;99992.88;;;9.86;53.53
36234;BME280;43467;50.890;5.982;2023-04-25T08:43:07;99991.66;;;9.93;54.18
36234;BME280;43467;50.890;5.982;2023-04-25T08:45:39;100002.09;;;9.96;53.34
36234;BME280;43467;50.890;5.982;2023-04-25T08:48:11;99996.88;;;10.13;53.95
36234;BME280;43467;50.890;5.982;2023-04-25T08:50:45;99997.19;;;10.26;52.71
36234;BME280;43467;50.890;5.982;2023-04-25T08:53:16;99994.31;;;10.31;52.83
36234;BME280;43467;50.890;5.982;2023-04-25T08:55:45;100017.84;;;10.18;52.15
36234;BME280;43467;50.890;5.982;2023-04-25T08:58:12;100007.19;;;10.19;51.78
36234;BME280;43467;50.890;5.982;2023-04-25T09:00:38;100022.75;;;9.88;52.50
36234;BME280;43467;50.890;5.982;2023-04-25T09:03:04;100020.59;;;9.96;53.57
36234;BME280;43467;50.890;5.982;2023-04-25T09:05:30;100023.75;;;9.86;53.36
36234;BME280;43467;50.890;5.982;2023-04-25T09:07:55;100029.75;;;9.50;54.06
36234;BME280;43467;50.890;5.982;2023-04-25T09:10:22;100033.44;;;9.66;54.61
36234;BME280;43467;50.890;5.982;2023-04-25T09:15:32;100046.13;;;9.58;52.68
36234;BME280;43467;50.890;5.982;2023-04-25T09:17:59;100045.00;;;9.45;53.25
36234;BME280;43467;50.890;5.982;2023-04-25T09:20:25;100053.81;;;9.64;54.15
36234;BME280;43467;50.890;5.982;2023-04-25T09:23:04;100054.56;;;9.48;53.02
36234;BME280;43467;50.890;5.982;2023-04-25T09:25:34;100056.44;;;9.64;52.31
36234;BME280;43467;50.890;5.982;2023-04-25T09:28:04;100066.38;;;9.39;52.08
36234;BME280;43467;50.890;5.982;2023-04-25T09:30:34;100071.78;;;9.56;52.11
36234;BME280;43467;50.890;5.982;2023-04-25T09:33:11;100069.38;;;9.70;52.98
36234;BME280;43467;50.890;5.982;2023-04-25T09:35:43;100060.72;;;9.67;53.27
36234;BME280;43467;50.890;5.982;2023-04-25T09:38:12;100080.44;;;9.60;53.25
36234;BME280;43467;50.890;5.982;2023-04-25T09:40:40;100081.19;;;9.43;51.59
36234;BME280;43467;50.890;5.982;2023-04-25T09:43:19;100089.91;;;9.45;51.31
36234;BME280;43467;50.890;5.982;2023-04-25T09:45:45;100097.91;;;9.44;51.96
36234;BME280;43467;50.890;5.982;2023-04-25T09:48:20;100091.69;;;9.45;52.11
36234;BME280;43467;50.890;5.982;2023-04-25T09:51:12;100095.72;;;9.53;51.33
36234;BME280;43467;50.890;5.982;2023-04-25T09:53:42;100096.00;;;9.66;51.99
36234;BME280;43467;50.890;5.982;2023-04-25T09:56:10;100094.56;;;9.79;51.26
36234;BME280;43467;50.890;5.982;2023-04-25T09:58:37;100092.97;;;9.75;51.45
36234;BME280;43467;50.890;5.982;2023-04-25T10:01:05;100095.69;;;9.73;51.06
36234;BME280;43467;50.890;5.982;2023-04-25T10:03:32;100102.94;;;9.89;51.04
36234;BME280;43467;50.890;5.982;2023-04-25T10:06:03;100095.34;;;9.81;51.02
36234;BME280;43467;50.890;5.982;2023-04-25T10:08:32;100100.97;;;9.94;51.46
36234;BME280;43467;50.890;5.982;2023-04-25T10:11:05;100101.81;;;9.94;51.00
36234;BME280;43467;50.890;5.982;2023-04-25T10:13:32;100111.91;;;10.05;50.92
36234;BME280;43467;50.890;5.982;2023-04-25T10:15:59;100102.84;;;10.10;51.23
36234;BME280;43467;50.890;5.982;2023-04-25T10:18:29;100099.94;;;9.96;51.49
36234;BME280;43467;50.890;5.982;2023-04-25T10:21:00;100104.38;;;9.96;51.99
36234;BME280;43467;50.890;5.982;2023-04-25T10:23:27;100095.31;;;10.01;52.45
36234;BME280;43467;50.890;5.982;2023-04-25T10:25:54;100108.34;;;10.06;51.28
36234;BME280;43467;50.890;5.982;2023-04-25T10:28:20;100094.66;;;9.96;51.32
36234;BME280;43467;50.890;5.982;2023-04-25T10:31:07;100096.91;;;10.05;49.69
36234;BME280;43467;50.890;5.982;2023-04-25T10:33:37;100096.16;;;10.22;49.90
36234;BME280;43467;50.890;5.982;2023-04-25T10:36:13;100093.84;;;10.33;49.84
36234;BME280;43467;50.890;5.982;2023-04-25T10:38:39;100087.13;;;10.45;50.08
36234;BME280;43467;50.890;5.982;2023-04-25T10:41:09;100091.00;;;10.38;49.65
36234;BME280;43467;50.890;5.982;2023-04-25T10:43:45;100098.13;;;10.36;49.89
36234;BME280;43467;50.890;5.982;2023-04-25T10:46:28;100103.22;;;10.40;49.98
36234;BME280;43467;50.890;5.982;2023-04-25T10:48:58;100100.78;;;10.36;50.26
36234;BME280;43467;50.890;5.982;2023-04-25T10:51:36;100101.81;;;10.13;50.01
36234;BME280;43467;50.890;5.982;2023-04-25T10:54:05;100105.91;;;10.01;50.03
36234;BME280;43467;50.890;5.982;2023-04-25T10:56:38;100112.81;;;9.65;51.17
36234;BME280;43467;50.890;5.982;2023-04-25T10:59:18;100117.31;;;9.43;51.34
36234;BME280;43467;50.890;5.982;2023-04-25T11:01:45;100115.38;;;9.46;51.59
36234;BME280;43467;50.890;5.982;2023-04-25T11:04:30;100101.66;;;9.58;51.58
36234;BME280;43467;50.890;5.982;2023-04-25T11:09:28;100126.75;;;9.68;50.78
36234;BME280;43467;50.890;5.982;2023-04-25T11:11:57;100129.66;;;9.62;50.73
36234;BME280;43467;50.890;5.982;2023-04-25T11:14:24;100126.69;;;9.70;50.91
36234;BME280;43467;50.890;5.982;2023-04-25T11:16:53;100124.59;;;9.78;51.18
36234;BME280;43467;50.890;5.982;2023-04-25T11:19:21;100134.00;;;9.84;51.68
36234;BME280;43467;50.890;5.982;2023-04-25T11:21:46;100132.81;;;9.91;51.61
36234;BME280;43467;50.890;5.982;2023-04-25T11:24:12;100133.63;;;9.93;51.90
36234;BME280;43467;50.890;5.982;2023-04-25T11:26:37;100137.25;;;9.90;51.89
36234;BME280;43467;50.890;5.982;2023-04-25T11:29:03;100131.31;;;9.85;51.82
36234;BME280;43467;50.890;5.982;2023-04-25T11:31:29;100133.03;;;9.86;52.15
36234;BME280;43467;50.890;5.982;2023-04-25T11:33:57;100130.50;;;9.83;52.07
36234;BME280;43467;50.890;5.982;2023-04-25T11:36:23;100130.31;;;9.67;52.76
36234;BME280;43467;50.890;5.982;2023-04-25T11:38:50;100122.25;;;9.70;50.30
36234;BME280;43467;50.890;5.982;2023-04-25T11:41:17;100136.34;;;9.71;49.78
36234;BME280;43467;50.890;5.982;2023-04-25T11:43:43;100131.06;;;9.51;49.46
36234;BME280;43467;50.890;5.982;2023-04-25T11:46:09;100132.31;;;9.62;49.16
36234;BME280;43467;50.890;5.982;2023-04-25T11:48:39;100136.66;;;9.84;48.42
36234;BME280;43467;50.890;5.982;2023-04-25T11:51:05;100142.97;;;10.00;46.29
36234;BME280;43467;50.890;5.982;2023-04-25T11:53:30;100137.69;;;10.00;46.07
36234;BME280;43467;50.890;5.982;2023-04-25T11:55:56;100121.69;;;10.03;46.45
36234;BME280;43467;50.890;5.982;2023-04-25T11:58:21;100137.28;;;10.09;46.19
36234;BME280;43467;50.890;5.982;2023-04-25T12:00:46;100154.38;;;10.22;46.49
36234;BME280;43467;50.890;5.982;2023-04-25T12:03:12;100143.63;;;10.25;45.77
36234;BME280;43467;50.890;5.982;2023-04-25T12:05:38;100131.19;;;10.27;46.68
36234;BME280;43467;50.890;5.982;2023-04-25T12:08:12;100146.78;;;10.33;46.55
36234;BME280;43467;50.890;5.982;2023-04-25T12:10:39;100139.19;;;10.25;46.55
36234;BME280;43467;50.890;5.982;2023-04-25T12:13:19;100147.28;;;10.41;46.35
36234;BME280;43467;50.890;5.982;2023-04-25T12:15:45;100141.47;;;10.52;46.83
36234;BME280;43467;50.890;5.982;2023-04-25T12:18:11;100144.56;;;10.61;46.87
36234;BME280;43467;50.890;5.982;2023-04-25T12:20:36;100144.28;;;10.67;46.48
36234;BME280;43467;50.890;5.982;2023-04-25T12:23:05;100148.69;;;10.86;45.65
36234;BME280;43467;50.890;5.982;2023-04-25T12:25:41;100139.72;;;10.88;45.63
36234;BME280;43467;50.890;5.982;2023-04-25T12:28:21;100134.91;;;10.79;46.15
36234;BME280;43467;50.890;5.982;2023-04-25T12:31:05;100146.69;;;10.91;46.62
36234;BME280;43467;50.890;5.982;2023-04-25T12:33:33;100132.09;;;10.82;47.24
36234;BME280;43467;50.890;5.982;2023-04-25T12:35:59;100143.88;;;10.94;46.24
36234;BME280;43467;50.890;5.982;2023-04-25T12:38:30;100148.34;;;10.75;45.85
36234;BME280;43467;50.890;5.982;2023-04-25T12:40:57;100141.50;;;10.70;46.96
36234;BME280;43467;50.890;5.982;2023-04-25T12:43:23;100143.78;;;10.78;47.38
36234;BME280;43467;50.890;5.982;2023-04-25T12:45:50;100143.63;;;10.81;47.76
36234;BME280;43467;50.890;5.982;2023-04-25T12:48:16;100147.88;;;10.66;47.46
36234;BME280;43467;50.890;5.982;2023-04-25T12:50:42;100151.19;;;10.89;48.77
36234;BME280;43467;50.890;5.982;2023-04-25T12:53:07;100148.16;;;10.96;47.99
36234;BME280;43467;50.890;5.982;2023-04-25T12:55:33;100151.16;;;11.07;47.34
36234;BME280;43467;50.890;5.982;2023-04-25T12:57:58;100141.75;;;11.19;47.78
36234;BME280;43467;50.890;5.982;2023-04-25T13:00:24;100141.16;;;11.48;47.27
36234;BME280;43467;50.890;5.982;2023-04-25T13:02:49;100142.50;;;11.57;46.08
36234;BME280;43467;50.890;5.982;2023-04-25T13:05:15;100141.75;;;11.71;46.27
36234;BME280;43467;50.890;5.982;2023-04-25T13:07:40;100128.91;;;11.46;46.90